• Join FlightAware (Why Join?)
  • Login
  • US Flag 
09:57PM EDT


 

Airport Tracker/Info


-or-


 

Live Flight TrackerFlight Track Log ✈ KAP33 ✈ 24-Jul-2013 ✈ KMVY - KACK

Flight Track Log - Related Links

Times and Time Zones

All times are in EDT time to prevent confusion due to time zone crossing. See the KAP33 flight status page for this flight to view local times or setup timezone preferences in your user account.

Time Position Orientation Groundspeed Altitude Reporting Facility
EDT Latitude Longitude Course Direction KTS MPH feet Rate Location/Type
08:05AM 41.3521 -70.4495 105° East  Level Estimated
08:06AM 41.3423 -70.4237 117° Southeast  Level FlightAware Approximate
08:07AM 41.3356 -70.3962 112° Southeast  Level Estimated
08:08AM 41.3271 -70.3696 113° Southeast  Level FlightAware Approximate
08:09AM 41.3186 -70.3431 113° Southeast  Level FlightAware Approximate
08:10AM 41.3101 -70.3165 113° Southeast  Level FlightAware Approximate
08:11AM 41.3016 -70.2900 113° Southeast  Level FlightAware Approximate
08:12AM 41.2930 -70.2634 113° Southeast  Level FlightAware Approximate
08:13AM 41.2876 -70.2355 105° East  Level Estimated
08:14AM 41.2809 -70.2081 108° East  Level FlightAware Approximate
08:15AM 41.2742 -70.1806 108° East  Level FlightAware Approximate
08:16AM 41.2693 -70.1525 102° East  Level Estimated
08:17AM 41.2640 -70.1245 104° East  Level FlightAware Approximate
08:18AM 41.2588 -70.0965 104° East  Level FlightAware Approximate
08:19AM 41.2535 -70.0685 104° East  Level FlightAware Approximate
08:20AM 41.2531 -70.0603 102° East  Level Estimated
08:21AM 41.2531 -70.0603 102° East  Level Estimated
08:22AM 41.2531 -70.0603 102° East  Level Estimated
08:23AM 41.2531 -70.0603 102° East  Level Estimated
08:24AM 41.2531 -70.0603 102° East  Level Estimated
08:25AM 41.2531 -70.0603 102° East  Level Estimated
08:26AM 41.2531 -70.0603 102° East  Level Estimated
08:27AM 41.2531 -70.0603 102° East  Level Estimated